Weather observations for the past three days for
Steamboat Springs
Metric (Imperial)
Date Time (mdt) Wind (kph) Vis. (km) Weather Sky Cond. Temperature (ºC) Relative Humidity Wind Chill (°C) Heat Index (°C) Pressure Precipitation (cm)
Air Dwpt 6 hour altimeter (cm) sea level (mb) 1 hr 3 hr 6 hr
Max. Min.
02 18:55 W 17 16.09 Fair CLR 15.7 -6.8 21% 76.48 0.0
02 18:35 NW 11 16.09 Fair CLR 16 -8 19% 76.5 0.0
02 18:15 W 15 16.09 Fair CLR 16.1 -7.3 19% 76.5 0.0
02 17:55 W 13 16.09 Fair CLR 16.6 -6.8 17.3 12.3 20% 76.5 0.0
02 17:35 W 17 16.09 Fair CLR 17 -6.8 19% 76.5 0.0
02 17:15 NW 11 16.09 Fair CLR 16.5 -7.6 19% 76.5 0.0
02 16:55 SW 9 16.09 Fair CLR 16.9 -7 19% 76.5 0.0
02 16:35 S 19 16.09 Fair CLR 16.8 -6.9 19% 76.53 0.0
02 16:15 S 15 G 26 16.09 Fair CLR 16.7 -6.9 19% 76.53 0.0
02 15:55 W 9 16.09 Fair CLR 16.6 -7 19% 76.56 0.0
02 15:35 W 15 16.09 Fair CLR 16.3 -7.4 19% 76.61 0.0
02 15:15 SW 11 16.09 Fair CLR 16.1 -8.2 18% 76.63 0.0
02 14:55 Calm 16.09 Fair CLR 16 -8.6 18% 76.63 0.0
02 14:35 S 7 16.09 Fair CLR 15.6 -9 18% 76.66 0.0
02 14:15 Calm 16.09 Fair CLR 15.3 -9.1 18% 76.66 0.0
02 13:55 S 13 16.09 Fair CLR 15.1 -9.6 17% 76.68 0.0
02 13:35 Calm 16.09 Fair CLR 14.5 -9.8 18% 76.71 0.0
02 13:15 S 13 16.09 Fair CLR 14.2 -9.1 19% 76.71 0.0
02 12:55 NW 7 16.09 Fair CLR 13.8 -9.7 19% 76.73 0.0
02 12:35 W 6 16.09 Fair CLR 13.2 -9.8 19% 76.76 0.0
02 12:15 W 9 G 15 16.09 Fair CLR 12.8 -9.4 21% 76.78 0.0
02 11:55 Calm 16.09 Fair CLR 12.4 -9.4 12.6 -3.3 21% 76.81 0.0
02 11:35 E 6 16.09 Fair CLR 12 -9.4 22% 76.81 0.0
02 11:15 Calm 16.09 Fair CLR 11.4 -9.3 23% 76.81 0.0
02 10:55 Calm 16.09 Fair CLR 11 -8.8 24% 76.84 0.0
02 10:35 Calm 16.09 Fair CLR 10.2 -6.2 31% 76.86 0.0
02 10:15 Calm 16.09 Fair CLR 8.9 -5.6 36% 76.86 0.0
02 09:55 Calm 16.09 Fair CLR 7.6 -5 41% 76.86 0.0
02 09:35 Calm 16.09 Fair CLR 6 -5.1 45% 76.86 0.0
02 09:15 Calm 16.09 Fair CLR 5.1 -4.8 49% 76.86 0.0
02 08:55 Calm 16.09 Fair CLR 4 -5.3 51% 76.86 0.0
02 08:35 Calm 16.09 Fair CLR 2.8 -5.9 53% 76.86 0.0
02 08:15 Calm 16.09 Fair CLR 2 -5.5 58% 76.89 0.0
02 07:55 Calm 16.09 Fair CLR 0.9 -5.4 63% 76.89 0.0
02 07:35 Calm 16.09 Fair CLR -0.7 -5.7 69% 76.89 0.0
02 07:15 Calm 16.09 Fair CLR -1.1 -5.9 70% 76.86 0.0
02 06:55 Calm 16.09 Fair CLR -1.6 -6.5 70% 76.86 0.0
02 06:35 Calm 16.09 Fair CLR -3.2 -7 75% 76.86 0.0
02 06:15 Calm 16.09 Fair CLR -2.8 -6.5 76% 76.84 0.0
02 05:55 Calm 16.09 Fair CLR -3.3 -6.9 2.7 -3.3 76% 76.81 0.0
02 05:35 Calm 16.09 Fair CLR -2.7 -7.5 70% 76.81 0.0
02 05:15 Calm 16.09 Fair CLR -2 -7.1 68% 76.81 0.0
02 04:55 Calm 16.09 Fair CLR -1.3 -7.2 65% 76.81 0.0
02 04:35 Calm 16.09 Fair CLR -0.8 -7.1 63% 76.81 0.0
02 04:15 Calm 16.09 Fair CLR -1 -7 64% 76.81 0.0
02 03:55 Calm 16.09 Fair CLR -0.5 -7.1 61% 76.81 0.0
02 03:35 Calm 16.09 Fair CLR -0.6 -6.5 65% 76.81 0.0
02 03:15 Calm 16.09 Fair CLR -1.4 -6.2 70% 76.78 0.0
02 02:55 Calm 16.09 Fair CLR -0.5 -7.2 61% 76.78 0.0
02 02:35 Calm 16.09 Fair CLR 0.8 -7.4 55% 76.78 0.0
02 02:15 Calm 16.09 Fair CLR 0.5 -7.2 57% 76.78 0.0
02 01:55 Calm 16.09 Fair CLR 1.3 -7.2 54% 76.78 0.0
02 01:35 Calm 16.09 Fair CLR 0.1 -7.3 58% 76.78 0.0
02 01:15 Calm 16.09 Fair CLR 2.4 -7.7 48% 76.78 0.0
02 00:55 Calm 16.09 Fair CLR 1.6 -7 53% 76.78 0.0
02 00:35 Calm 16.09 Fair CLR 2.5 -7.5 48% 76.76 0.0
02 00:15 Calm 16.09 Fair CLR 2.6 -7.7 47% 76.76 0.0
01 23:55 Calm 16.09 Fair CLR 2.8 -8 12.9 2.7 45% 76.76 0.0
01 23:35 NW 6 16.09 Fair CLR 3.5 -7.6 44% 76.73 0.0
01 23:15 W 7 16.09 Fair CLR 4 -8.4 40% 2 76.73 0.0
01 22:55 NW 9 16.09 Fair CLR 4.5 -8.4 39% 3 76.71 0.0
01 22:35 Calm 16.09 Fair CLR 4.3 -8.7 39% 76.73 0.0
01 22:15 Calm 16.09 Fair CLR 5.7 -9.4 33% 76.71 0.0
01 21:55 Calm 16.09 Fair CLR 4.5 -9 37% 76.68 0.0
01 21:35 Calm 16.09 Fair CLR 5.7 -9.7 32% 76.66 0.0
01 21:15 N 6 16.09 Fair CLR 6.7 -9.3 31% 76.66 0.0
01 20:55 NE 9 16.09 Fair CLR 7.6 -10.3 27% 6 76.61 0.0
01 20:35 N 9 16.09 Fair CLR 9 -11.1 23% 8 76.61 0.0
01 20:15 N 7 16.09 Fair CLR 9.6 -11.7 21% 9 76.58 0.0
01 19:55 N 9 16.09 Fair CLR 10.6 -12.4 19% 76.56 0.0
01 19:15 NW 15 16.09 Fair CLR 11.9 -11.9 18% 76.53 0.0
01 18:55 N 15 16.09 Fair CLR 12.3 -12.3 17% 76.5 0.0
01 18:35 NE 11 16.09 Fair CLR 12.3 -12.7 16% 76.5 0.0
01 18:15 NE 9 16.09 Fair CLR 12.6 -12.5 16% 76.5 0.0
01 17:55 N 13 16.09 Fair CLR 12.4 -11.7 13.5 8.4 18% 76.5 0.0
01 17:35 N 11 16.09 Fair CLR 12.1 -12.5 17% 76.5 0.0
01 17:15 NW 19 G 28 16.09 Fair CLR 13 -13.5 15% 76.5 0.0
01 16:55 NE 6 16.09 Fair CLR 13.1 -16.8 11% 76.5 0.0
01 16:35 N 13 G 28 16.09 Partly Cloudy SCT100 13 -13.1 15% 76.48 0.0
01 16:15 NW 19 16.09 Partly Cloudy SCT100 12.6 -10.7 19% 76.5 0.0
01 15:55 N 15 G 35 16.09 Mostly Cloudy BKN100 12.3 -11.3 18% 76.5 0.0
01 15:35 NW 19 16.09 Partly Cloudy SCT100 11.9 -10.1 21% 76.5 0.0
01 15:15 W 6 16.09 Mostly Cloudy BKN090 11.5 -9.8 22% 76.53 0.0
01 14:55 Calm 16.09 Mostly Cloudy BKN090 12.8 -7.3 24% 76.53 0.0
01 14:35 SW 9 16.09 Mostly Cloudy BKN090 12.4 -7.2 25% 76.53 0.0
01 14:15 S 9 16.09 Partly Cloudy SCT090 11.2 -7.1 27% 76.53 0.0
01 13:55 S 7 16.09 Fair CLR 11.3 -7 27% 76.56 0.0
01 13:35 E 7 16.09 Fair CLR 10.5 -7.3 28% 76.56 0.0
01 13:15 S 11 16.09 Fair CLR 10.4 -6.7 30% 76.56 0.0
01 12:55 S 11 G 33 16.09 Fair CLR 10.2 -5.7 32% 76.58 0.0
01 12:35 Calm 16.09 Fair CLR 9.5 -6 33% 76.58 0.0
01 12:15 W 7 16.09 Fair CLR 8.9 -5.9 35% 8 76.61 0.0
01 11:55 SE 7 16.09 Fair CLR 8.4 -5.6 8.8 -4.5 37% 8 76.61 0.0
01 11:35 SE 11 16.09 Fair CLR 8.2 -6 36% 7 76.61 0.0
01 11:15 SE 9 16.09 Fair CLR 7.6 -5.5 39% 6 76.63 0.0
01 10:55 SW 9 16.09 Fair CLR 6.8 -3.9 47% 5 76.63 0.0
01 10:35 Calm 16.09 Fair CLR 5.7 -2.6 56% 76.66 0.0
01 10:15 NW 6 16.09 Fair CLR 4.4 -1.4 66% 76.66 0.0
01 09:55 S 6 16.09 Fair CLR 3.7 -0.8 73% 76.66 0.0
01 09:35 SW 6 16.09 Fair CLR 2.5 -1.2 77% 76.66 0.0
01 09:15 Calm 16.09 Fair CLR 1.5 -2.1 77% 76.66 0.0
01 08:55 Calm 16.09 Fair CLR 0.7 -1.6 85% 76.66 0.0
01 08:35 Calm 16.09 Fair CLR -0.1 -2.4 85% 76.66 0.0
01 08:15 Calm 16.09 Fair CLR -0.8 -3.1 85% 76.66 0.0
01 07:55 Calm 16.09 Fair CLR -1.9 -3.5 89% 76.66 0.0
01 07:35 Calm 16.09 Fair CLR -2.3 -3.7 90% 76.63 0.0
01 07:15 Calm 16.09 Fair CLR -3.2 -4.5 91% 76.61 0.0
01 06:55 Calm 16.09 Fair CLR -4.2 -5.6 90% 76.61 0.0
01 06:35 Calm 16.09 Fair CLR -3.6 -4.2 96% 76.61 0.0
01 06:15 Calm 16.09 Fair CLR -3.9 -4.9 93% 76.58 0.0
01 05:55 Calm 16.09 Fair CLR -4 -4.9 -0.2 -4.5 94% 76.58 0.0
01 05:35 Calm 16.09 Fair CLR -3.7 -4.6 94% 76.58 0.0
01 05:15 Calm 16.09 Fair CLR -4.2 -5.3 92% 76.58 0.0
01 04:55 E 6 16.09 Fair CLR -3.4 -4.4 93% 76.58 0.0
01 04:35 Calm 16.09 Fair CLR -3 -3.9 94% 76.58 0.0
01 04:15 Calm 16.09 Fair CLR -2.6 -3.7 92% 76.58 0.0
01 03:55 Calm 16.09 Fair CLR -2.5 -3.4 94% 76.56 0.0
01 03:35 Calm 16.09 Fair CLR -2.5 -3.3 94% 76.56 0.0
01 03:15 Calm 16.09 Fair CLR -2 -2.8 94% 76.56 0.0
01 02:55 Calm 16.09 Fair CLR -2.4 -3.3 94% 76.56 0.0
01 02:35 Calm 16.09 Fair CLR -2.2 -2.8 96% 76.58 0.0
01 02:15 Calm 16.09 Fair CLR -2 -2.8 94% 76.58 0.0
01 01:55 Calm 16.09 Fair CLR -1 -2.2 92% 76.58 0.0
01 01:35 Calm 16.09 Fair CLR -1.6 -2.5 94% 76.58 0.0
01 01:15 Calm 16.09 Fair CLR -1.3 -2.2 94% 76.58 0.0
01 00:55 Calm 16.09 Fair CLR -0.5 -1.9 90% 76.58 0.0
01 00:35 Calm 16.09 Fair CLR -0.5 -1.9 90% 76.58 0.0
01 00:15 Calm 16.09 Fair CLR -0.5 -1.5 93% 76.61 0.0
30 23:55 Calm 16.09 Fair CLR -0.5 -1.6 8.6 -0.5 92% 76.58 0.0
30 23:35 Calm 16.09 Fair CLR 0 -1.5 90% 76.58 0.0
30 23:15 E 6 16.09 Fair CLR 0.5 -1.2 89% 76.58 0.0
30 22:55 Calm 16.09 Fair CLR 0.3 -1.3 89% 76.58 0.0
30 22:35 Calm 16.09 Partly Cloudy SCT095 1.2 -0.7 87% 76.58 0.0
30 22:15 Calm 16.09 Mostly Cloudy SCT095 BKN120 1.7 -1.1 82% 76.58 0.0
30 21:55 Calm 16.09 Mostly Cloudy SCT095 BKN120 1.7 -1.1 82% 76.58 0.0
30 21:35 N 6 16.09 Partly Cloudy SCT075 SCT095 2 -0.7 83% 76.56 0.0
30 21:15 NW 7 16.09 Overcast OVC075 1.7 -0.1 88% -0 76.53 0.0
30 20:55 NW 6 16.09 Overcast BKN075 OVC095 2 0 87% 76.5 0.0
30 20:35 Calm 16.09 Mostly Cloudy SCT060 SCT075 BKN095 2.7 -0.1 82% 76.48 0.0
30 20:15 Calm 16.09 Overcast SCT035 BKN048 OVC060 3.3 -0.3 78% 76.48 0.0
30 19:55 SE 7 16.09 Overcast OVC038 3.5 -0.7 74% 2 76.45 0.0
30 19:35 SE 15 16.09 Overcast SCT040 OVC050 3 -0.3 79% -0 76.45 0.0
30 19:15 SE 19 16.09 Overcast OVC050 2.5 -0.1 83% -1 76.43 0.0
30 18:55 E 28 16.09 Overcast BKN046 OVC055 2.8 0 82% -2 76.4 0.0
30 18:35 E 30 16.09 Overcast BKN039 OVC046 4.1 -0.4 73% -1 76.4 0.0
30 18:15 E 26 G 31 16.09 Overcast BKN037 BKN047 OVC060 6.5 0.8 67% 3 76.38 0.0
30 17:55 W 13 G 28 16.09 Overcast SCT041 BKN047 OVC060 8.4 -2.7 10.7 3.7 46% 7 76.35 0.0
30 17:35 W 22 G 28 16.09 Overcast OVC043 8.6 -2.4 46% 6 76.35 0.0
30 16:55 SE 9 16.09 Partly Cloudy SCT035 SCT042 8.1 -1.8 50% 7 76.33 0.0
30 16:35 Calm 16.09 Partly Cloudy SCT032 SCT038 SCT090 7.5 -1.3 54% 76.35 0.0
30 16:15 NW 17 16.09 Overcast BKN024 BKN031 OVC090 7 -0.4 60% 4 76.38 0.0
30 15:55 NW 19 16.09 Overcast SCT017 BKN024 OVC034 5 -0.4 68% 2 76.4 0.0
30 15:35 W 20 G 35 16.09 Overcast SCT018 BKN034 OVC070 5 -0.1 70% 1 76.4 0.0
30 15:15 N 11 16.09 Overcast SCT037 BKN060 OVC070 6.4 -2.4 54% 4 76.38 0.0
30 14:55 NW 15 16.09 Overcast BKN070 OVC080 5.9 0.3 68% 3 76.38 0.0
30 14:35 NW 19 16.09 Mostly Cloudy SCT060 BKN070 BKN090 5.9 -0.1 66% 3 76.4 0.0
30 14:15 N 28 G 39 16.09 Overcast SCT028 BKN070 OVC090 5 0.3 72% 1 76.4 0.0
30 13:55 NW 31 G 43 16.09 Overcast SCT011 SCT032 OVC040 4 0.3 77% -1 76.4 0.0
30 13:35 NW 31 G 48 16.09 Overcast SCT011 SCT036 OVC050 4.4 -1.9 64% -0 76.38 0.0
30 13:15 W 24 G 30 16.09 Overcast BKN050 OVC060 8.4 -3.7 43% 5 76.33 0.0
30 12:55 W 15 16.09 Mostly Cloudy BKN050 10.1 -3.9 37% 76.33 0.0
30 12:35 S 7 16.09 Partly Cloudy SCT048 SCT060 SCT095 9.5 -4.4 38% 9 76.35 0.0
30 12:15 SW 17 16.09 Mostly Cloudy SCT044 BKN060 BKN095 9.5 -3.3 41% 7 76.35 0.0
30 11:55 SE 9 16.09 Partly Cloudy SCT060 8.2 -3.3 8.8 -3.8 44% 7 76.38 0.0
30 11:35 Calm 16.09 Partly Cloudy SCT036 8.3 -2.9 46% 76.4 0.0
30 11:15 SE 9 16.09 Partly Cloudy SCT036 7.3 -2.5 50% 6 76.43 0.0
30 10:55 NE 7 16.09 Fair CLR 6.7 -2 54% 6 76.45 0.0
30 10:35 E 9 16.09 Fair CLR 6.4 -2.5 53% 5 76.45 0.0
30 10:15 E 11 16.09 Partly Cloudy SCT031 SCT044 4.9 -1.6 63% 3 76.45 0.0
30 09:55 N 11 16.09 Mostly Cloudy SCT031 BKN046 3.7 -2.2 66% 1 76.48 0.0
30 09:35 N 6 16.09 Overcast SCT025 SCT031 OVC044 1.9 -2.7 72% 76.5 0.0
30 09:15 Calm 16.09 Overcast SCT028 BKN041 OVC050 1.4 -3.7 69% 76.5 0.0
30 08:55 Calm 16.09 Overcast SCT043 OVC050 1.5 -3.1 72% 76.5 0.0
30 08:35 Calm 16.09 Overcast BKN048 OVC060 0.3 -3.6 75% 76.53 0.0
30 08:15 Calm 16.09 Overcast OVC070 -1 -3.7 82% 76.5 0.0
30 07:55 Calm 16.09 Overcast OVC070 -1.4 -4 83% 76.5 0.0
30 07:35 Calm 16.09 Overcast BKN070 OVC090 -2.5 -4.6 86% 76.48 0.0
30 07:15 Calm 16.09 Overcast SCT070 OVC090 -2.1 -5 81% 76.45 0.0
30 06:55 SW 7 16.09 Mostly Cloudy BKN100 -2.8 -5.4 83% -5 76.45 0.0
30 06:35 Calm 16.09 Partly Cloudy SCT110 -3.4 -5.5 86% 76.45 0.0
30 06:15 SE 9 16.09 Fair CLR -3.8 -5.5 88% -7 76.45 0.0
30 05:55 Calm 16.09 Fair CLR -2.9 -5.9 1.4 -3.3 80% 76.43 0.0
30 05:35 Calm 16.09 Fair CLR -3 -5 86% 76.45 0.0
30 05:15 Calm 16.09 Partly Cloudy SCT110 -2.5 -5.5 80% 76.4 0.0
30 04:55 Calm 16.09 Partly Cloudy SCT110 -2.1 -5.5 78% 76.45 0.0
30 04:35 Calm 16.09 Fair CLR -2.3 -5.3 80% 76.45 0.0
30 04:15 Calm 16.09 Fair CLR -1.5 -5.7 73% 76.45 0.0
30 03:55 Calm 16.09 Fair CLR -1 -5.7 71% 76.45 0.0
30 03:35 Calm 16.09 Fair CLR -1 -5.2 73% 76.45 0.0
30 03:15 Calm 16.09 Fair CLR -0.1 -5.6 67% 76.45 0.0
30 02:55 Calm 16.09 Fair CLR -1.6 -4.9 78% 76.45 0.0
30 02:35 Calm 16.09 Fair CLR -1.2 -5.1 75% 76.45 0.0
30 02:15 Calm 16.09 Fair CLR -1.1 -4.8 76% 76.45 0.0
30 01:55 Calm 16.09 Fair CLR -0.5 -5 72% 76.45 0.0
30 01:35 Calm 16.09 Fair CLR 0.3 -5.5 65% 76.45 0.0
30 01:15 Calm 16.09 Fair CLR 0 -5.3 68% 76.48 0.0
30 00:55 N 6 16.09 Fair CLR 0 -4.2 74% 76.48 0.0
30 00:35 Calm 16.09 Fair CLR 0.1 -4.9 69% 76.5 0.0
30 00:15 Calm 16.09 Fair CLR 1.1 -5.4 62% 76.5 0.0
29 23:55 Calm 16.09 Fair CLR 0.8 -4.8 10.3 0.8 67% 76.48 0.0
29 23:35 Calm 16.09 Fair CLR 2.1 -5.4 58% 76.48 0.0
29 23:15 Calm 16.09 Fair CLR 2.5 -5.3 57% 76.5 0.0
29 22:55 Calm 16.09 Fair CLR 2.2 -4.9 60% 76.53 0.0
29 22:35 Calm 16.09 Fair CLR 3.2 -5.6 53% 76.53 0.0
29 22:15 Calm 16.09 Fair CLR 3.3 -5.5 53% 76.56 0.0
29 21:55 Calm 16.09 Fair CLR 3.1 -5.4 54% 76.53 0.0
29 21:35 Calm 16.09 Fair CLR 4.5 -5.9 47% 76.5 0.0
29 21:15 Calm 16.09 Fair CLR 5.9 -6.2 42% 76.48 0.0
29 20:55 Calm 16.09 Fair CLR 4.9 -5.1 49% 76.48 0.0
29 20:35 N 6 16.09 Fair CLR 6.5 -7.1 37% 76.45 0.0
29 20:15 N 6 16.09 Fair CLR 6 -6.6 40% 76.45 0.0
29 19:55 NW 11 16.09 Fair CLR 5.9 -5.5 44% 4 76.4 0.0
29 19:35 NW 15 16.09 Fair CLR 7.8 -6.2 37% 6 76.4 0.0
29 19:15 NW 17 16.09 Fair CLR 8.7 -6.5 34% 6 76.4 0.0
Date Time (mdt) Wind (kph) Vis. (km) Weather Sky Cond. Air Dwpt Max. Min. Relative Humidity Wind Chill (°C) Heat Index (°C) altimeter (cm) sea level (mb) 1 hr 3 hr 6 hr
6 hour
Temperature (ºC) Pressure Precipitation (cm)